We Are Flying!
The weather is looking good today! Planes are flying and engines are turning. Please call to confirm your arrival with our operations team!

We recommend that you phone ahead before traveling
John Monaghan - Flight Operations: 0862486210
EIDW 240230Z 20007KT 170V230 9999 FEW020 BKN050 13/11 Q1012 NOSIG